Time;durP1;ratioP1;P1;durP2;ratioP2;P2;SDS_P1;SDS_P2;PMS_P1;PMS_P2;Temp;Humidity;BMP_temperature;BMP_pressure;BME280_temperature;BME280_humidity;BME280_pressure;Samples;Min_cycle;Max_cycle;Signal;HPM_P1;HPM_P2
2023/10/19 00:00:19;;;;;;;6.40;5.80;;;11.80;99.90;;;;;;5042931;28;20040;-43
2023/10/19 00:02:54;;;;;;;5.53;4.97;;;11.80;99.90;;;;;;5043537;28;20087;-42
2023/10/19 00:05:20;;;;;;;6.65;6.05;;;11.80;99.90;;;;;;5041689;28;20456;-42
2023/10/19 00:07:49;;;;;;;8.32;6.82;;;11.90;99.90;;;;;;5043506;28;20032;-42
2023/10/19 00:10:16;;;;;;;6.85;6.15;;;11.90;99.90;;;;;;5042249;28;20048;-43
2023/10/19 00:12:43;;;;;;;5.88;5.30;;;11.90;99.90;;;;;;5043332;28;20144;-42
2023/10/19 00:15:10;;;;;;;6.07;5.47;;;11.90;99.90;;;;;;5042890;28;20119;-42
2023/10/19 00:17:39;;;;;;;5.88;5.38;;;11.90;99.90;;;;;;5042425;28;20835;-42
2023/10/19 00:22:54;;;;;;;6.60;6.00;;;12.00;99.90;;;;;;5044077;28;20087;-42
2023/10/19 00:25:23;;;;;;;6.15;5.55;;;12.00;99.90;;;;;;5041967;28;20132;-43
2023/10/19 00:27:48;;;;;;;4.85;4.45;;;12.00;99.90;;;;;;5043290;28;20024;-43
2023/10/19 00:30:21;;;;;;;6.40;5.82;;;12.00;99.90;;;;;;5043526;28;20029;-43
2023/10/19 00:32:46;;;;;;;7.28;6.03;;;12.00;99.90;;;;;;5044911;28;20160;-42
2023/10/19 00:35:27;;;;;;;7.13;6.18;;;12.10;99.90;;;;;;5047021;28;20881;-42
2023/10/19 00:37:56;;;;;;;6.55;5.47;;;12.10;99.90;;;;;;5047352;28;20071;-42
2023/10/19 00:40:34;;;;;;;5.82;5.32;;;12.10;99.90;;;;;;5046269;28;20472;-42
2023/10/19 00:43:08;;;;;;;6.15;5.55;;;12.20;99.90;;;;;;5046440;28;20083;-42
2023/10/19 00:45:39;;;;;;;7.53;6.47;;;12.20;99.90;;;;;;5046398;28;20045;-44
2023/10/19 00:48:08;;;;;;;6.68;5.75;;;12.20;99.90;;;;;;5046306;28;20710;-43
2023/10/19 00:50:34;;;;;;;7.30;6.60;;;12.30;99.90;;;;;;5047085;28;20029;-43
2023/10/19 00:53:03;;;;;;;6.35;5.78;;;12.20;99.90;;;;;;5045616;28;20024;-44
2023/10/19 00:55:30;;;;;;;6.05;5.45;;;12.30;99.90;;;;;;5046630;28;20119;-44
2023/10/19 00:57:56;;;;;;;6.30;5.70;;;12.30;99.90;;;;;;5046823;28;20024;-42
2023/10/19 01:00:30;;;;;;;6.45;5.85;;;12.30;99.90;;;;;;5045588;28;20029;-42
2023/10/19 01:03:04;;;;;;;5.93;5.30;;;12.40;99.90;;;;;;5046687;28;20025;-43
2023/10/19 01:05:35;;;;;;;6.28;5.35;;;12.40;99.90;;;;;;5046777;28;20021;-43
2023/10/19 01:08:13;;;;;;;6.45;5.75;;;12.40;99.90;;;;;;5045267;28;20543;-43
2023/10/19 01:10:40;;;;;;;6.43;5.82;;;12.40;99.90;;;;;;5046664;28;20068;-43
2023/10/19 01:13:06;;;;;;;5.95;5.35;;;12.40;99.90;;;;;;5045933;28;20559;-42
2023/10/19 01:15:36;;;;;;;6.85;6.10;;;12.40;99.90;;;;;;5045824;28;20128;-43
2023/10/19 01:18:14;;;;;;;7.30;6.20;;;12.40;99.90;;;;;;5046186;28;20024;-43
2023/10/19 01:20:54;;;;;;;6.40;5.80;;;12.40;99.90;;;;;;5045566;28;20065;-44
2023/10/19 01:23:21;;;;;;;6.90;6.20;;;12.40;99.90;;;;;;5046037;28;20020;-43
2023/10/19 01:25:59;;;;;;;7.38;6.30;;;12.50;99.90;;;;;;5047392;28;20037;-44
2023/10/19 01:31:07;;;;;;;7.45;6.28;;;12.50;99.90;;;;;;5046133;28;20037;-44
2023/10/19 01:33:36;;;;;;;7.45;6.75;;;12.50;99.90;;;;;;5045803;28;20051;-44
2023/10/19 01:36:11;;;;;;;6.80;6.10;;;12.50;99.90;;;;;;5044738;28;20122;-43
2023/10/19 01:38:37;;;;;;;6.20;5.60;;;12.60;99.90;;;;;;5045451;28;20071;-43
2023/10/19 01:41:15;;;;;;;6.57;5.88;;;12.60;99.90;;;;;;5045291;28;20029;-41
2023/10/19 01:43:45;;;;;;;6.40;5.80;;;12.60;99.90;;;;;;5044602;28;20971;-43
2023/10/19 01:46:12;;;;;;;6.57;5.88;;;12.60;99.90;;;;;;5045012;28;20031;-42
2023/10/19 01:48:40;;;;;;;6.70;6.00;;;12.60;99.90;;;;;;5045431;28;20017;-41
2023/10/19 01:51:10;;;;;;;7.07;5.88;;;12.60;99.90;;;;;;5044416;28;20065;-42
2023/10/19 01:53:39;;;;;;;6.70;6.00;;;12.70;99.90;;;;;;5045294;28;20120;-43
2023/10/19 01:56:09;;;;;;;7.13;6.45;;;12.70;99.90;;;;;;5044541;28;20785;-44
2023/10/19 01:58:36;;;;;;;8.15;6.57;;;12.70;99.90;;;;;;5045122;28;20085;-43
2023/10/19 02:01:07;;;;;;;6.85;6.15;;;12.70;99.90;;;;;;5041617;28;20107;-42
2023/10/19 02:03:35;;;;;;;7.03;5.67;;;12.70;99.90;;;;;;5045400;28;20060;-43
2023/10/19 02:06:20;;;;;;;6.38;5.75;;;12.70;99.90;;;;;;5044656;28;20025;-43
2023/10/19 02:08:51;;;;;;;5.97;5.20;;;12.80;99.90;;;;;;5045097;28;20025;-43
2023/10/19 02:11:46;;;;;;;5.30;4.80;;;12.80;99.90;;;;;;5043603;28;20419;-41
2023/10/19 02:14:14;;;;;;;4.80;4.30;;;12.80;99.90;;;;;;5044309;28;20124;-43
2023/10/19 02:16:50;;;;;;;5.20;4.40;;;12.90;99.90;;;;;;5044987;28;20083;-42
2023/10/19 02:19:16;;;;;;;5.43;4.93;;;12.90;99.90;;;;;;5044169;28;20813;-42
2023/10/19 02:21:47;;;;;;;5.47;4.97;;;12.90;99.90;;;;;;5044901;28;20025;-43
2023/10/19 02:24:16;;;;;;;5.47;4.97;;;12.90;99.90;;;;;;5043620;28;20029;-43
2023/10/19 02:26:43;;;;;;;5.25;4.65;;;13.00;99.90;;;;;;5044399;28;20544;-43
2023/10/19 02:29:09;;;;;;;5.28;4.50;;;13.00;99.90;;;;;;5044916;28;20025;-42
2023/10/19 02:31:40;;;;;;;5.00;4.50;;;13.00;99.90;;;;;;5044047;28;20025;-42
2023/10/19 02:34:10;;;;;;;4.75;4.35;;;13.00;99.90;;;;;;5044560;28;20033;-43
2023/10/19 02:36:37;;;;;;;5.25;4.75;;;13.10;99.90;;;;;;5044636;28;20542;-42
2023/10/19 02:39:07;;;;;;;5.95;4.75;;;13.10;99.90;;;;;;5043498;28;20071;-43
2023/10/19 02:41:41;;;;;;;5.32;4.82;;;13.10;99.90;;;;;;5044777;28;20091;-42
2023/10/19 02:46:43;;;;;;;4.30;3.90;;;13.20;99.90;;;;;;5043923;28;20033;-43
2023/10/19 02:49:11;;;;;;;5.53;5.03;;;13.20;99.90;;;;;;5044295;28;20031;-42
2023/10/19 02:51:42;;;;;;;4.85;4.45;;;13.30;99.90;;;;;;5044477;28;20078;-43
2023/10/19 02:54:08;;;;;;;4.60;4.20;;;13.30;99.90;;;;;;5042840;28;20044;-42
2023/10/19 02:56:35;;;;;;;5.55;5.05;;;13.30;99.90;;;;;;5043922;28;20051;-43
2023/10/19 02:59:03;;;;;;;4.70;4.30;;;13.30;99.90;;;;;;5044031;28;20064;-43
2023/10/19 03:01:34;;;;;;;4.47;4.07;;;13.30;99.90;;;;;;5043993;28;20804;-43
2023/10/19 03:04:04;;;;;;;4.55;4.07;;;13.40;99.90;;;;;;5043477;28;20516;-44
2023/10/19 03:06:33;;;;;;;4.30;3.90;;;13.40;99.90;;;;;;5043234;28;20033;-43
2023/10/19 03:09:22;;;;;;;4.72;4.32;;;13.40;99.90;;;;;;5044036;28;20024;-43
2023/10/19 03:11:52;;;;;;;5.70;3.58;;;13.50;99.90;;;;;;5043912;28;20029;-43
2023/10/19 03:14:19;;;;;;;3.90;3.50;;;13.50;99.90;;;;;;5042774;28;20045;-42
2023/10/19 03:16:45;;;;;;;3.53;3.22;;;13.50;99.90;;;;;;5043937;28;20029;-44
2023/10/19 03:19:32;;;;;;;4.05;3.42;;;13.50;99.90;;;;;;5043337;28;20104;-42
2023/10/19 03:22:00;;;;;;;3.95;3.55;;;13.50;99.90;;;;;;5042251;28;20511;-43
2023/10/19 03:27:23;;;;;;;4.70;3.70;;;13.60;99.90;;;;;;5043194;28;20111;-43
2023/10/19 03:30:38;;;;;;;3.25;2.95;;;13.60;99.90;;;;;;5043983;28;20032;-44
2023/10/19 03:32:42;;;;;;;3.53;3.22;;;13.60;99.90;;;;;;5042628;28;20130;-42
2023/10/19 03:35:08;;;;;;;3.80;2.80;;;13.70;99.90;;;;;;5042602;28;20066;-43
2023/10/19 03:37:35;;;;;;;3.75;2.53;;;13.70;99.90;;;;;;5043575;28;20025;-43
2023/10/19 03:40:07;;;;;;;3.38;3.08;;;13.70;99.90;;;;;;5043420;28;20025;-43
2023/10/19 03:42:33;;;;;;;3.67;2.63;;;13.80;99.90;;;;;;5043141;28;20017;-45
2023/10/19 03:45:02;;;;;;;2.67;2.17;;;13.80;99.90;;;;;;5043652;28;20025;-43
2023/10/19 03:47:43;;;;;;;2.42;2.20;;;13.90;99.90;;;;;;5043079;28;20761;-43
2023/10/19 03:50:14;;;;;;;2.42;2.20;;;13.90;99.90;;;;;;5032823;28;20037;-42
2023/10/19 03:52:40;;;;;;;2.55;2.20;;;14.00;99.90;;;;;;5044497;28;20013;-42
2023/10/19 03:55:11;;;;;;;2.30;2.10;;;14.00;99.90;;;;;;5043594;28;20035;-42
2023/10/19 03:57:41;;;;;;;2.05;1.85;;;14.00;99.90;;;;;;5042801;28;20043;-43
2023/10/19 04:00:11;;;;;;;3.03;2.28;;;14.00;99.90;;;;;;5043328;28;20025;-43
2023/10/19 04:02:38;;;;;;;2.13;1.92;;;14.00;99.90;;;;;;5043190;28;20021;-42
2023/10/19 04:05:11;;;;;;;2.05;1.80;;;14.00;99.90;;;;;;5043607;28;20024;-43
2023/10/19 04:07:36;;;;;;;1.88;1.77;;;14.10;99.90;;;;;;5047342;28;20099;-42
2023/10/19 04:12:36;;;;;;;2.00;1.80;;;14.00;99.90;;;;;;5048397;28;20403;-43
2023/10/19 04:15:15;;;;;;;1.92;1.70;;;14.00;99.90;;;;;;5047562;28;20064;-43
2023/10/19 04:17:47;;;;;;;1.67;1.58;;;14.00;99.90;;;;;;5047404;28;20033;-43
2023/10/19 04:22:47;;;;;;;2.67;1.30;;;14.00;99.90;;;;;;5048135;28;20033;-43
2023/10/19 04:25:15;;;;;;;1.75;1.50;;;14.00;99.90;;;;;;5045771;28;20029;-43
2023/10/19 04:27:42;;;;;;;1.85;1.48;;;14.10;99.90;;;;;;5027721;28;20025;-43
2023/10/19 04:30:15;;;;;;;1.80;1.70;;;14.10;99.90;;;;;;5041781;28;20460;-42
2023/10/19 04:32:41;;;;;;;2.08;1.30;;;14.10;99.90;;;;;;5046539;28;20064;-43
2023/10/19 04:35:09;;;;;;;1.20;1.10;;;14.10;99.90;;;;;;5046630;28;20120;-43
2023/10/19 04:37:42;;;;;;;2.08;1.48;;;14.10;99.90;;;;;;5046877;28;20029;-43
2023/10/19 04:40:08;;;;;;;1.65;1.52;;;14.10;99.90;;;;;;5046904;28;20031;-43
2023/10/19 04:42:34;;;;;;;2.80;1.75;;;14.10;99.90;;;;;;5047263;28;20541;-44
2023/10/19 04:44:59;;;;;;;1.52;1.42;;;14.20;99.90;;;;;;5046143;28;20025;-44
2023/10/19 04:47:28;;;;;;;1.70;1.40;;;14.20;99.90;;;;;;5046656;28;20037;-43
2023/10/19 04:49:53;;;;;;;1.45;1.35;;;14.20;99.90;;;;;;5047275;28;20029;-42
2023/10/19 04:52:19;;;;;;;3.00;1.92;;;14.10;99.90;;;;;;5045685;28;20909;-43
2023/10/19 04:54:44;;;;;;;3.33;1.77;;;14.10;99.90;;;;;;5046863;28;20396;-45
2023/10/19 04:57:10;;;;;;;1.70;1.60;;;14.10;99.90;;;;;;5046453;28;20040;-44
2023/10/19 04:59:36;;;;;;;1.48;1.38;;;14.10;99.90;;;;;;5046052;28;20040;-44
2023/10/19 05:02:01;;;;;;;1.80;1.60;;;14.10;99.90;;;;;;5046214;28;20029;-43
2023/10/19 05:04:33;;;;;;;1.75;1.63;;;14.00;99.90;;;;;;5046750;28;20043;-43
2023/10/19 05:07:05;;;;;;;1.80;1.70;;;13.90;99.90;;;;;;5045587;28;20079;-41
2023/10/19 05:09:32;;;;;;;2.30;1.80;;;13.90;99.90;;;;;;5046507;28;20450;-42
2023/10/19 05:11:57;;;;;;;3.05;1.98;;;13.90;99.90;;;;;;5045752;28;20440;-43
2023/10/19 05:14:24;;;;;;;3.15;1.92;;;13.80;99.90;;;;;;5045664;28;20086;-44
2023/10/19 05:16:49;;;;;;;2.50;1.75;;;13.80;99.90;;;;;;5046319;28;20083;-42
2023/10/19 05:19:21;;;;;;;2.30;2.10;;;13.70;99.90;;;;;;5044659;28;20033;-43
2023/10/19 05:21:56;;;;;;;1.98;1.88;;;13.60;99.90;;;;;;5045892;28;20031;-42
2023/10/19 05:24:21;;;;;;;2.20;2.00;;;13.50;99.90;;;;;;5045633;28;20061;-43
2023/10/19 05:26:48;;;;;;;2.28;2.08;;;13.50;99.90;;;;;;5045624;28;20063;-42
2023/10/19 05:29:13;;;;;;;2.42;2.22;;;13.40;99.90;;;;;;5046136;28;20025;-42
2023/10/19 05:31:39;;;;;;;2.63;2.08;;;13.40;99.90;;;;;;5045365;28;20040;-44
2023/10/19 05:34:05;;;;;;;2.30;2.10;;;13.40;99.90;;;;;;5044759;28;20049;-42
2023/10/19 05:36:32;;;;;;;2.75;2.40;;;13.30;99.90;;;;;;5045920;28;20685;-43
2023/10/19 05:38:57;;;;;;;2.53;2.03;;;13.30;99.90;;;;;;5045775;28;20041;-43
2023/10/19 05:41:23;;;;;;;2.55;2.35;;;13.40;99.90;;;;;;5044793;28;20024;-43
2023/10/19 05:43:49;;;;;;;2.10;1.98;;;13.40;99.90;;;;;;5046244;28;20059;-42
2023/10/19 05:46:18;;;;;;;2.55;2.10;;;13.40;99.90;;;;;;5045247;28;20080;-42
2023/10/19 05:48:45;;;;;;;2.35;2.15;;;13.40;99.90;;;;;;5044757;28;20036;-43
2023/10/19 05:51:10;;;;;;;2.15;1.95;;;13.40;99.90;;;;;;5045739;28;20036;-42
2023/10/19 05:53:37;;;;;;;2.92;1.77;;;13.40;99.90;;;;;;5045563;28;20029;-43
2023/10/19 05:56:03;;;;;;;2.60;2.40;;;13.50;99.90;;;;;;5044949;28;20041;-43
2023/10/19 05:58:28;;;;;;;2.10;2.00;;;13.50;99.90;;;;;;5045818;28;20098;-44
2023/10/19 06:00:58;;;;;;;2.53;2.28;;;13.50;99.90;;;;;;5045979;28;20033;-43
2023/10/19 06:03:24;;;;;;;2.20;2.00;;;13.60;99.90;;;;;;5044804;28;20059;-44
2023/10/19 06:05:49;;;;;;;2.42;2.20;;;13.60;99.90;;;;;;5046168;28;20057;-43
2023/10/19 06:08:15;;;;;;;2.20;1.92;;;13.70;99.90;;;;;;5044900;28;20033;-43
2023/10/19 06:10:42;;;;;;;2.28;2.08;;;13.70;99.90;;;;;;5044593;28;20029;-43
2023/10/19 06:13:10;;;;;;;2.22;2.00;;;13.70;99.90;;;;;;5044471;28;20025;-43
2023/10/19 06:15:42;;;;;;;2.08;1.88;;;13.80;99.90;;;;;;5044632;28;20033;-42
2023/10/19 06:18:10;;;;;;;;;;;13.80;99.90;;;;;;5044116;28;20669;-42
2023/10/19 06:20:39;;;;;;;1.60;1.50;;;13.90;99.90;;;;;;5044997;28;19908;-43
2023/10/19 06:23:05;;;;;;;2.05;1.70;;;13.90;99.90;;;;;;5043590;28;20252;-43
2023/10/19 06:25:32;;;;;;;1.90;1.55;;;13.90;99.90;;;;;;5044958;28;20032;-43
2023/10/19 06:27:59;;;;;;;1.65;1.52;;;14.00;99.90;;;;;;5044763;28;20020;-43
2023/10/19 06:30:30;;;;;;;2.45;1.67;;;14.00;99.90;;;;;;5044337;28;20713;-43
2023/10/19 06:33:01;;;;;;;1.80;1.60;;;14.00;99.90;;;;;;5044604;28;20118;-43
2023/10/19 06:35:27;;;;;;;2.45;1.52;;;14.10;99.90;;;;;;5044262;28;20118;-43
2023/10/19 06:37:56;;;;;;;2.45;1.45;;;14.10;99.90;;;;;;5044045;28;20491;-43
2023/10/19 06:40:22;;;;;;;1.58;1.48;;;14.20;99.90;;;;;;5040827;28;20028;-44
2023/10/19 06:42:49;;;;;;;1.95;1.48;;;14.20;99.90;;;;;;5044925;28;20494;-44
2023/10/19 06:45:18;;;;;;;2.90;1.58;;;14.20;99.90;;;;;;5043738;28;20029;-44
2023/10/19 06:47:46;;;;;;;1.40;1.30;;;14.30;99.90;;;;;;5044790;28;20032;-44
2023/10/19 06:50:15;;;;;;;2.83;1.35;;;14.30;99.90;;;;;;5043981;28;20689;-43
2023/10/19 06:52:42;;;;;;;3.13;1.60;;;14.30;99.90;;;;;;5044407;28;20104;-43
2023/10/19 06:55:13;;;;;;;2.50;1.60;;;14.30;99.90;;;;;;5043244;28;20028;-44
2023/10/19 06:57:43;;;;;;;2.40;1.50;;;14.40;99.90;;;;;;5044817;28;20040;-44
2023/10/19 07:00:19;;;;;;;2.17;1.30;;;14.40;99.90;;;;;;5042937;28;20027;-43
2023/10/19 07:02:46;;;;;;;2.30;1.30;;;14.40;99.90;;;;;;5044623;28;20059;-43
2023/10/19 07:05:13;;;;;;;2.15;1.50;;;14.40;99.90;;;;;;5043591;28;20033;-42
2023/10/19 07:07:44;;;;;;;2.60;1.33;;;14.50;99.90;;;;;;5044175;28;20044;-43
2023/10/19 07:10:13;;;;;;;1.40;1.30;;;14.50;99.90;;;;;;5043022;28;20032;-42
2023/10/19 07:12:41;;;;;;;1.20;0.93;;;14.50;99.90;;;;;;5043311;28;20082;-42
2023/10/19 07:15:07;;;;;;;2.05;1.30;;;14.60;99.90;;;;;;5043275;28;20033;-42
2023/10/19 07:17:42;;;;;;;2.20;1.30;;;14.60;99.90;;;;;;5043566;28;20037;-42
2023/10/19 07:23:05;;;;;;;1.50;1.30;;;14.70;99.90;;;;;;5043963;28;20081;-43
2023/10/19 07:25:31;;;;;;;1.40;1.17;;;14.80;99.90;;;;;;5043488;28;20560;-43
2023/10/19 07:27:59;;;;;;;1.95;0.95;;;14.80;99.90;;;;;;5043080;28;20066;-43
2023/10/19 07:30:28;;;;;;;2.63;1.50;;;14.80;99.90;;;;;;5044468;28;20051;-43
2023/10/19 07:32:59;;;;;;;1.63;1.10;;;14.90;99.90;;;;;;5043532;28;20105;-43
2023/10/19 07:35:26;;;;;;;1.27;1.13;;;14.80;99.90;;;;;;5043316;28;20112;-44
2023/10/19 07:37:52;;;;;;;1.55;1.00;;;14.90;99.90;;;;;;5044448;28;20024;-44
2023/10/19 07:40:18;;;;;;;1.48;0.90;;;14.90;99.90;;;;;;5043187;28;20484;-44
2023/10/19 07:42:49;;;;;;;1.10;1.00;;;14.90;99.90;;;;;;5042953;28;20074;-44
2023/10/19 07:45:15;;;;;;;2.15;1.20;;;14.90;99.90;;;;;;5043275;28;20033;-42
2023/10/19 07:47:41;;;;;;;1.63;1.52;;;15.00;99.90;;;;;;5043352;28;20021;-43
2023/10/19 07:50:16;;;;;;;3.30;2.22;;;14.90;99.90;;;;;;5043428;28;20021;-42
2023/10/19 07:52:54;;;;;;;2.88;2.05;;;15.00;99.90;;;;;;5042539;28;20067;-42
2023/10/19 07:55:25;;;;;;;4.40;2.42;;;15.00;99.90;;;;;;5042271;28;20033;-42
2023/10/19 07:57:51;;;;;;;4.45;2.70;;;15.00;99.90;;;;;;5043164;28;20106;-44
2023/10/19 08:00:20;;;;;;;3.17;2.08;;;15.00;99.90;;;;;;5043267;28;20031;-42
2023/10/19 08:02:46;;;;;;;4.03;1.80;;;15.10;99.90;;;;;;5042115;28;20029;-43
2023/10/19 08:05:18;;;;;;;2.92;2.17;;;15.10;99.90;;;;;;5043256;28;20480;-42
2023/10/19 08:07:46;;;;;;;8.13;2.05;;;15.10;99.90;;;;;;5042855;28;20131;-42
2023/10/19 08:10:13;;;;;;;2.25;1.70;;;15.10;99.90;;;;;;5042666;28;20047;-43
2023/10/19 08:12:43;;;;;;;3.50;1.20;;;15.20;99.90;;;;;;5043559;28;20025;-43
2023/10/19 08:15:15;;;;;;;2.05;1.08;;;15.20;99.90;;;;;;5042797;28;20072;-43
2023/10/19 08:17:43;;;;;;;3.20;1.00;;;15.30;99.90;;;;;;5042789;28;20095;-43
2023/10/19 08:20:45;;;;;;;2.10;1.00;;;15.30;99.90;;;;;;5043007;28;20391;-42
2023/10/19 08:23:03;;;;;;;2.53;1.00;;;15.30;99.90;;;;;;5041507;28;20040;-43
2023/10/19 08:25:29;;;;;;;1.33;0.63;;;15.30;99.90;;;;;;5042916;28;20021;-43
2023/10/19 08:27:57;;;;;;;2.78;0.80;;;15.40;99.90;;;;;;5042646;28;20033;-42
2023/10/19 08:30:23;;;;;;;1.23;0.90;;;15.40;99.90;;;;;;5042593;28;20029;-42
2023/10/19 08:32:52;;;;;;;3.92;0.90;;;15.50;99.90;;;;;;5042821;28;20045;-43
2023/10/19 08:35:24;;;;;;;1.27;0.77;;;15.50;99.90;;;;;;5042677;28;20102;-42
2023/10/19 08:37:50;;;;;;;2.85;0.90;;;15.60;99.90;;;;;;5042400;28;20559;-43
2023/10/19 08:40:17;;;;;;;1.95;0.90;;;15.60;99.90;;;;;;5041863;28;20535;-43
2023/10/19 08:42:45;;;;;;;2.10;0.88;;;15.60;99.90;;;;;;5042761;28;20518;-43
2023/10/19 08:45:14;;;;;;;3.05;1.10;;;15.60;99.90;;;;;;5042038;28;20029;-43
2023/10/19 08:47:56;;;;;;;1.80;0.90;;;15.70;99.90;;;;;;5043050;28;20124;-43
2023/10/19 08:50:23;;;;;;;1.70;0.90;;;15.70;99.90;;;;;;5033770;28;20400;-43
2023/10/19 08:52:53;;;;;;;1.80;0.90;;;15.70;99.90;;;;;;5043088;28;20044;-43
2023/10/19 08:55:19;;;;;;;1.35;0.93;;;15.80;99.90;;;;;;5035676;28;20028;-43
2023/10/19 08:57:49;;;;;;;3.40;1.10;;;15.80;99.90;;;;;;5046282;28;20790;-43
2023/10/19 09:00:18;;;;;;;1.63;0.93;;;15.90;99.90;;;;;;5046004;28;20092;-44
2023/10/19 09:02:45;;;;;;;2.17;1.00;;;15.90;99.90;;;;;;5047046;28;20025;-44
2023/10/19 09:05:22;;;;;;;2.40;1.13;;;16.00;99.90;;;;;;5041289;28;20017;-42
2023/10/19 09:07:55;;;;;;;1.63;1.08;;;16.10;99.90;;;;;;5046378;28;20090;-43
2023/10/19 09:10:31;;;;;;;2.70;1.00;;;16.10;99.90;;;;;;5042031;28;20078;-42
2023/10/19 09:13:09;;;;;;;2.13;1.15;;;16.20;99.90;;;;;;5045963;28;20021;-43
2023/10/19 09:15:39;;;;;;;3.60;0.93;;;16.20;99.90;;;;;;5043176;28;20053;-42
2023/10/19 09:18:22;;;;;;;3.17;0.90;;;16.20;99.90;;;;;;5045678;28;20053;-44
2023/10/19 09:20:52;;;;;;;1.88;0.90;;;16.30;99.90;;;;;;5046161;28;20032;-43
2023/10/19 09:23:22;;;;;;;1.83;0.95;;;16.30;99.90;;;;;;5047022;28;20021;-43
2023/10/19 09:25:49;;;;;;;1.58;1.10;;;16.40;99.90;;;;;;5045679;28;20451;-43
2023/10/19 09:28:15;;;;;;;3.15;1.15;;;16.40;99.90;;;;;;5045073;28;20029;-43
2023/10/19 09:30:42;;;;;;;3.67;1.50;;;16.40;99.90;;;;;;5046013;28;20380;-43
2023/10/19 09:33:09;;;;;;;2.35;1.17;;;16.40;99.90;;;;;;5044952;28;20064;-44
2023/10/19 09:35:37;;;;;;;2.95;0.98;;;16.50;99.90;;;;;;5046219;28;20033;-44
2023/10/19 09:38:06;;;;;;;2.42;1.05;;;16.50;99.90;;;;;;5025827;28;20021;-45
2023/10/19 09:40:33;;;;;;;3.30;1.05;;;16.50;99.90;;;;;;5039887;28;20033;-43
2023/10/19 09:43:02;;;;;;;1.38;1.10;;;16.60;99.90;;;;;;5046081;28;20036;-44
2023/10/19 09:45:30;;;;;;;2.80;1.17;;;16.60;99.90;;;;;;5046417;28;20013;-44
2023/10/19 09:47:56;;;;;;;3.47;1.10;;;16.70;99.90;;;;;;5046288;28;20069;-45
2023/10/19 09:50:22;;;;;;;4.28;1.50;;;16.80;99.90;;;;;;5046004;28;20024;-44
2023/10/19 09:52:51;;;;;;;1.85;1.10;;;16.90;99.90;;;;;;5046219;28;20021;-44
2023/10/19 09:55:20;;;;;;;2.72;1.42;;;17.00;99.90;;;;;;5045221;28;20160;-44
2023/10/19 09:57:52;;;;;;;2.40;1.23;;;17.10;99.90;;;;;;5046932;28;20028;-45
2023/10/19 10:00:23;;;;;;;2.43;1.30;;;17.20;99.90;;;;;;5045934;28;20078;-44
2023/10/19 10:02:55;;;;;;;3.35;1.10;;;17.30;99.90;;;;;;5045125;28;20492;-44
2023/10/19 10:05:42;;;;;;;3.72;1.17;;;17.30;99.90;;;;;;5044345;28;20551;-44
2023/10/19 10:08:17;;;;;;;1.92;1.00;;;17.40;99.90;;;;;;5044924;28;20033;-45
2023/10/19 10:10:49;;;;;;;2.10;1.00;;;17.40;99.90;;;;;;5045436;28;20036;-45
2023/10/19 10:13:36;;;;;;;3.17;1.45;;;17.50;99.90;;;;;;5044957;28;20523;-45
2023/10/19 10:16:03;;;;;;;5.25;2.13;;;17.50;99.90;;;;;;5044237;28;20040;-44
2023/10/19 10:18:37;;;;;;;3.42;1.50;;;17.60;99.90;;;;;;5045331;28;20024;-43
2023/10/19 10:21:12;;;;;;;3.83;1.55;;;17.60;99.90;;;;;;5044502;28;20028;-45
2023/10/19 10:23:42;;;;;;;3.25;1.20;;;17.60;99.90;;;;;;5045071;28;20033;-44
2023/10/19 10:26:08;;;;;;;2.53;1.60;;;17.60;99.90;;;;;;5044734;28;20029;-44
2023/10/19 10:28:41;;;;;;;3.67;1.50;;;17.60;99.90;;;;;;5044752;28;20551;-42
2023/10/19 10:31:15;;;;;;;3.85;1.40;;;17.60;99.90;;;;;;5043601;28;20020;-43
2023/10/19 10:33:49;;;;;;;3.35;1.02;;;17.70;99.90;;;;;;5034521;28;20104;-43
2023/10/19 10:36:17;;;;;;;4.97;1.55;;;17.80;99.90;;;;;;5043414;28;20039;-43
2023/10/19 10:38:44;;;;;;;3.88;1.77;;;17.80;99.90;;;;;;5044635;28;20079;-43
2023/10/19 10:41:10;;;;;;;1.95;1.15;;;17.90;99.90;;;;;;5044501;28;20099;-43
2023/10/19 10:43:56;;;;;;;3.55;1.27;;;17.90;99.90;;;;;;5043589;28;20020;-43
2023/10/19 10:46:23;;;;;;;1.58;0.90;;;17.90;99.90;;;;;;5044439;28;20031;-44
2023/10/19 10:48:49;;;;;;;2.20;1.05;;;18.00;99.90;;;;;;5045000;28;20104;-43
2023/10/19 10:51:22;;;;;;;2.75;1.30;;;18.00;99.90;;;;;;5043659;28;20048;-43
2023/10/19 10:53:52;;;;;;;3.60;1.30;;;18.00;99.90;;;;;;5043755;28;20119;-44
2023/10/19 10:56:19;;;;;;;4.25;1.35;;;18.00;99.90;;;;;;5044326;28;20035;-43
2023/10/19 10:58:51;;;;;;;4.55;1.27;;;18.10;99.90;;;;;;5043077;28;20013;-43
2023/10/19 11:01:35;;;;;;;5.20;1.50;;;18.00;99.90;;;;;;5043944;28;20083;-42
2023/10/19 11:04:16;;;;;;;4.47;1.33;;;18.00;99.90;;;;;;5043584;28;20032;-44
2023/10/19 11:06:53;;;;;;;1.80;1.10;;;18.00;99.90;;;;;;5043479;28;20047;-43
2023/10/19 11:09:18;;;;;;;3.47;1.08;;;18.00;99.90;;;;;;5043550;28;20105;-43
2023/10/19 11:11:45;;;;;;;3.35;1.00;;;18.00;99.90;;;;;;5043869;28;20388;-43
2023/10/19 11:14:14;;;;;;;2.50;1.17;;;18.00;99.90;;;;;;5043262;28;20116;-43
2023/10/19 11:16:39;;;;;;;2.30;1.10;;;18.10;99.90;;;;;;5044124;28;20053;-43
2023/10/19 11:19:05;;;;;;;2.25;1.10;;;18.10;99.90;;;;;;5042480;28;20157;-44
2023/10/19 11:21:31;;;;;;;1.98;0.95;;;18.10;99.90;;;;;;5044276;28;20028;-44
2023/10/19 11:23:59;;;;;;;2.35;1.10;;;18.20;99.90;;;;;;5043932;28;20495;-44
2023/10/19 11:26:25;;;;;;;2.10;1.27;;;18.30;99.90;;;;;;5043434;28;20036;-43
2023/10/19 11:29:00;;;;;;;5.38;1.25;;;18.40;99.90;;;;;;5043618;28;20033;-44
2023/10/19 11:31:27;;;;;;;3.95;1.20;;;18.60;99.90;;;;;;5044051;28;20036;-44
2023/10/19 11:33:58;;;;;;;4.80;1.20;;;18.70;99.90;;;;;;5042615;28;20118;-44
2023/10/19 11:36:25;;;;;;;2.03;1.45;;;18.70;99.90;;;;;;5043549;28;20490;-43
2023/10/19 11:38:52;;;;;;;4.07;1.63;;;18.80;99.90;;;;;;5043395;28;20025;-46
2023/10/19 11:41:18;;;;;;;6.93;1.90;;;18.80;99.90;;;;;;5043265;28;20078;-43
2023/10/19 11:43:46;;;;;;;4.88;1.30;;;18.70;99.90;;;;;;5043554;28;20021;-44
2023/10/19 11:46:12;;;;;;;6.50;1.40;;;18.70;99.90;;;;;;5043239;28;20029;-43
2023/10/19 11:48:39;;;;;;;4.95;1.38;;;18.80;99.90;;;;;;5043212;28;20040;-43
2023/10/19 11:51:09;;;;;;;2.75;1.40;;;18.80;99.90;;;;;;5043255;28;20033;-43
2023/10/19 11:53:38;;;;;;;5.68;1.48;;;18.90;99.90;;;;;;5043264;28;20029;-42
2023/10/19 11:56:09;;;;;;;3.97;1.30;;;19.00;99.90;;;;;;5042970;28;20044;-43
2023/10/19 11:58:37;;;;;;;5.70;1.90;;;19.00;99.90;;;;;;5043508;28;20024;-43
2023/10/19 12:01:05;;;;;;;3.40;1.20;;;19.00;99.90;;;;;;5042686;28;20094;-43
2023/10/19 12:03:31;;;;;;;3.08;1.35;;;19.00;99.90;;;;;;5043486;28;20021;-42
2023/10/19 12:05:57;;;;;;;4.38;1.15;;;19.00;99.90;;;;;;5043534;28;20419;-43
2023/10/19 12:08:22;;;;;;;4.13;1.02;;;19.10;99.90;;;;;;5043180;28;20032;-43
2023/10/19 12:10:50;;;;;;;5.45;1.35;;;19.10;99.90;;;;;;5043380;28;20029;-43
2023/10/19 12:13:16;;;;;;;3.08;1.35;;;19.10;99.90;;;;;;5043296;28;20494;-43
2023/10/19 12:15:51;;;;;;;3.30;1.20;;;19.00;99.90;;;;;;5043020;28;20040;-43
2023/10/19 12:18:18;;;;;;;3.35;1.10;;;18.90;99.90;;;;;;5043291;28;20908;-43
2023/10/19 12:20:45;;;;;;;3.20;1.15;;;18.90;99.90;;;;;;5043353;28;20120;-44
2023/10/19 12:23:14;;;;;;;2.25;1.00;;;18.80;99.90;;;;;;5042546;28;20032;-43
2023/10/19 12:25:42;;;;;;;2.25;1.13;;;18.80;99.90;;;;;;5043358;28;20592;-44
2023/10/19 12:28:08;;;;;;;3.17;1.23;;;18.80;99.90;;;;;;5045396;28;20056;-42
2023/10/19 12:30:36;;;;;;;2.88;1.45;;;18.80;99.90;;;;;;5046835;28;20531;-43
2023/10/19 12:33:11;;;;;;;2.25;1.17;;;18.80;99.90;;;;;;5046606;28;20061;-44
2023/10/19 12:35:56;;;;;;;2.28;1.00;;;18.80;99.90;;;;;;5046686;28;20471;-44
2023/10/19 12:38:25;;;;;;;2.83;1.10;;;18.80;99.90;;;;;;5046368;28;20469;-44
2023/10/19 12:40:51;;;;;;;1.73;1.00;;;18.70;99.90;;;;;;5046761;28;20047;-45
2023/10/19 12:43:25;;;;;;;3.20;1.33;;;18.70;99.90;;;;;;5045621;28;20459;-44
2023/10/19 12:45:53;;;;;;;2.13;1.20;;;18.70;99.90;;;;;;5046969;28;20096;-45
2023/10/19 12:48:21;;;;;;;3.00;1.30;;;18.80;99.90;;;;;;5046736;28;20028;-44
2023/10/19 12:50:47;;;;;;;3.10;1.20;;;18.80;99.90;;;;;;5046572;28;20021;-43
2023/10/19 12:53:13;;;;;;;2.25;1.50;;;18.90;99.90;;;;;;5046109;28;20029;-44
2023/10/19 12:55:39;;;;;;;3.08;1.20;;;18.80;99.90;;;;;;5046242;28;20073;-43
2023/10/19 12:58:14;;;;;;;3.65;1.10;;;18.80;99.90;;;;;;5045620;28;20631;-44
2023/10/19 13:00:49;;;;;;;2.92;1.00;;;18.80;99.90;;;;;;5046380;28;20029;-43
2023/10/19 13:03:18;;;;;;;3.17;0.93;;;18.70;99.90;;;;;;5043277;28;20055;-44
2023/10/19 13:05:44;;;;;;;3.08;1.05;;;18.70;99.90;;;;;;5045728;28;20653;-44
2023/10/19 13:08:13;;;;;;;5.40;1.10;;;18.70;99.90;;;;;;5044591;28;20025;-44
2023/10/19 13:10:42;;;;;;;3.17;0.70;;;18.60;99.90;;;;;;5046828;28;20021;-44
2023/10/19 13:13:11;;;;;;;3.17;1.08;;;18.60;99.90;;;;;;5045148;28;20488;-45
2023/10/19 13:15:38;;;;;;;2.15;0.90;;;18.60;99.90;;;;;;5046693;28;20498;-44
2023/10/19 13:18:06;;;;;;;3.08;1.08;;;18.50;99.90;;;;;;5045101;28;20021;-44